sensor_id;sensor_type;location;lat;lon;timestamp;P1;durP1;ratioP1;P2;durP2;ratioP2
48516;SDS011;34310;51.904;4.256;2023-02-04T00:00:11;11.60;;;6.47;;
48516;SDS011;34310;51.904;4.256;2023-02-04T00:02:40;12.88;;;6.30;;
48516;SDS011;34310;51.904;4.256;2023-02-04T00:05:08;12.60;;;6.68;;
48516;SDS011;34310;51.904;4.256;2023-02-04T00:07:37;11.65;;;6.63;;
48516;SDS011;34310;51.904;4.256;2023-02-04T00:10:06;11.20;;;6.28;;
48516;SDS011;34310;51.904;4.256;2023-02-04T00:12:34;11.73;;;6.55;;
48516;SDS011;34310;51.904;4.256;2023-02-04T00:15:02;10.48;;;5.85;;
48516;SDS011;34310;51.904;4.256;2023-02-04T00:17:30;13.65;;;6.30;;
48516;SDS011;34310;51.904;4.256;2023-02-04T00:19:57;11.00;;;6.00;;
48516;SDS011;34310;51.904;4.256;2023-02-04T00:22:25;12.45;;;6.07;;
48516;SDS011;34310;51.904;4.256;2023-02-04T00:24:54;10.85;;;5.93;;
48516;SDS011;34310;51.904;4.256;2023-02-04T00:27:21;10.23;;;5.70;;
48516;SDS011;34310;51.904;4.256;2023-02-04T00:29:49;11.63;;;6.40;;
48516;SDS011;34310;51.904;4.256;2023-02-04T00:32:16;10.65;;;5.95;;
48516;SDS011;34310;51.904;4.256;2023-02-04T00:34:43;9.65;;;6.10;;
48516;SDS011;34310;51.904;4.256;2023-02-04T00:37:11;12.18;;;6.47;;
48516;SDS011;34310;51.904;4.256;2023-02-04T00:39:38;9.63;;;5.80;;
48516;SDS011;34310;51.904;4.256;2023-02-04T00:42:05;12.48;;;5.97;;
48516;SDS011;34310;51.904;4.256;2023-02-04T00:44:33;10.68;;;6.18;;
48516;SDS011;34310;51.904;4.256;2023-02-04T00:47:01;8.70;;;5.63;;
48516;SDS011;34310;51.904;4.256;2023-02-04T00:49:30;10.75;;;5.93;;
48516;SDS011;34310;51.904;4.256;2023-02-04T00:51:58;9.38;;;5.47;;
48516;SDS011;34310;51.904;4.256;2023-02-04T00:54:26;9.70;;;5.85;;
48516;SDS011;34310;51.904;4.256;2023-02-04T00:56:54;9.82;;;5.60;;
48516;SDS011;34310;51.904;4.256;2023-02-04T00:59:21;12.02;;;6.00;;
48516;SDS011;34310;51.904;4.256;2023-02-04T01:01:49;9.05;;;6.10;;
48516;SDS011;34310;51.904;4.256;2023-02-04T01:04:16;11.35;;;6.18;;
48516;SDS011;34310;51.904;4.256;2023-02-04T01:06:44;10.10;;;6.18;;
48516;SDS011;34310;51.904;4.256;2023-02-04T01:09:11;10.38;;;6.13;;
48516;SDS011;34310;51.904;4.256;2023-02-04T01:11:38;13.90;;;6.18;;
48516;SDS011;34310;51.904;4.256;2023-02-04T01:14:06;9.32;;;5.82;;
48516;SDS011;34310;51.904;4.256;2023-02-04T01:16:33;11.57;;;5.97;;
48516;SDS011;34310;51.904;4.256;2023-02-04T01:19:00;9.48;;;5.38;;
48516;SDS011;34310;51.904;4.256;2023-02-04T01:21:28;9.68;;;5.85;;
48516;SDS011;34310;51.904;4.256;2023-02-04T01:23:55;10.77;;;5.85;;
48516;SDS011;34310;51.904;4.256;2023-02-04T01:26:22;10.55;;;6.15;;
48516;SDS011;34310;51.904;4.256;2023-02-04T01:28:49;10.32;;;5.97;;
48516;SDS011;34310;51.904;4.256;2023-02-04T01:31:17;10.20;;;5.47;;
48516;SDS011;34310;51.904;4.256;2023-02-04T01:33:44;9.52;;;5.60;;
48516;SDS011;34310;51.904;4.256;2023-02-04T01:36:12;10.52;;;5.80;;
48516;SDS011;34310;51.904;4.256;2023-02-04T01:38:39;10.55;;;6.22;;
48516;SDS011;34310;51.904;4.256;2023-02-04T01:41:06;9.30;;;5.70;;
48516;SDS011;34310;51.904;4.256;2023-02-04T01:43:33;10.85;;;5.70;;
48516;SDS011;34310;51.904;4.256;2023-02-04T01:46:01;10.00;;;5.70;;
48516;SDS011;34310;51.904;4.256;2023-02-04T01:48:28;9.90;;;5.85;;
48516;SDS011;34310;51.904;4.256;2023-02-04T01:51:15;10.15;;;5.68;;
48516;SDS011;34310;51.904;4.256;2023-02-04T01:56:21;9.30;;;5.53;;
48516;SDS011;34310;51.904;4.256;2023-02-04T01:58:52;7.40;;;5.15;;
48516;SDS011;34310;51.904;4.256;2023-02-04T02:04:10;9.10;;;5.50;;
48516;SDS011;34310;51.904;4.256;2023-02-04T02:06:40;6.38;;;4.53;;
48516;SDS011;34310;51.904;4.256;2023-02-04T02:09:11;8.18;;;4.82;;
48516;SDS011;34310;51.904;4.256;2023-02-04T02:11:38;9.10;;;4.97;;
48516;SDS011;34310;51.904;4.256;2023-02-04T02:14:05;7.90;;;4.82;;
48516;SDS011;34310;51.904;4.256;2023-02-04T02:16:33;8.75;;;4.80;;
48516;SDS011;34310;51.904;4.256;2023-02-04T02:19:00;6.70;;;4.28;;
48516;SDS011;34310;51.904;4.256;2023-02-04T02:21:31;7.35;;;4.75;;
48516;SDS011;34310;51.904;4.256;2023-02-04T02:24:31;8.57;;;5.00;;
48516;SDS011;34310;51.904;4.256;2023-02-04T02:27:06;8.75;;;5.25;;
48516;SDS011;34310;51.904;4.256;2023-02-04T02:29:36;7.10;;;4.63;;
48516;SDS011;34310;51.904;4.256;2023-02-04T02:32:06;7.72;;;4.80;;
48516;SDS011;34310;51.904;4.256;2023-02-04T02:34:35;6.40;;;4.68;;
48516;SDS011;34310;51.904;4.256;2023-02-04T02:37:04;7.00;;;4.20;;
48516;SDS011;34310;51.904;4.256;2023-02-04T02:39:34;9.65;;;5.25;;
48516;SDS011;34310;51.904;4.256;2023-02-04T02:42:03;7.63;;;5.00;;
48516;SDS011;34310;51.904;4.256;2023-02-04T02:44:31;6.78;;;4.32;;
48516;SDS011;34310;51.904;4.256;2023-02-04T02:46:59;6.72;;;4.28;;
48516;SDS011;34310;51.904;4.256;2023-02-04T02:49:26;8.10;;;4.30;;
48516;SDS011;34310;51.904;4.256;2023-02-04T02:51:56;5.40;;;3.80;;
48516;SDS011;34310;51.904;4.256;2023-02-04T02:54:27;6.40;;;4.20;;
48516;SDS011;34310;51.904;4.256;2023-02-04T02:56:56;6.13;;;3.92;;
48516;SDS011;34310;51.904;4.256;2023-02-04T02:59:25;9.23;;;4.40;;
48516;SDS011;34310;51.904;4.256;2023-02-04T03:01:54;5.95;;;3.85;;
48516;SDS011;34310;51.904;4.256;2023-02-04T03:04:25;6.22;;;4.10;;
48516;SDS011;34310;51.904;4.256;2023-02-04T03:06:56;9.50;;;5.00;;
48516;SDS011;34310;51.904;4.256;2023-02-04T03:09:24;6.85;;;3.95;;
48516;SDS011;34310;51.904;4.256;2023-02-04T03:11:53;7.55;;;3.80;;
48516;SDS011;34310;51.904;4.256;2023-02-04T03:14:20;6.60;;;4.05;;
48516;SDS011;34310;51.904;4.256;2023-02-04T03:16:50;8.65;;;4.22;;
48516;SDS011;34310;51.904;4.256;2023-02-04T03:19:19;7.35;;;4.13;;
48516;SDS011;34310;51.904;4.256;2023-02-04T03:21:48;5.90;;;3.85;;
48516;SDS011;34310;51.904;4.256;2023-02-04T03:24:16;8.68;;;4.47;;
48516;SDS011;34310;51.904;4.256;2023-02-04T03:26:43;8.00;;;4.10;;
48516;SDS011;34310;51.904;4.256;2023-02-04T03:29:11;6.97;;;4.05;;
48516;SDS011;34310;51.904;4.256;2023-02-04T03:31:38;5.35;;;4.05;;
48516;SDS011;34310;51.904;4.256;2023-02-04T03:34:05;6.82;;;3.80;;
48516;SDS011;34310;51.904;4.256;2023-02-04T03:36:33;7.65;;;3.95;;
48516;SDS011;34310;51.904;4.256;2023-02-04T03:39:01;6.95;;;3.67;;
48516;SDS011;34310;51.904;4.256;2023-02-04T03:41:29;6.13;;;3.45;;
48516;SDS011;34310;51.904;4.256;2023-02-04T03:43:56;6.40;;;3.50;;
48516;SDS011;34310;51.904;4.256;2023-02-04T03:46:23;6.38;;;4.00;;
48516;SDS011;34310;51.904;4.256;2023-02-04T03:48:51;6.60;;;3.80;;
48516;SDS011;34310;51.904;4.256;2023-02-04T03:51:18;6.55;;;3.97;;
48516;SDS011;34310;51.904;4.256;2023-02-04T03:53:45;7.65;;;3.60;;
48516;SDS011;34310;51.904;4.256;2023-02-04T03:56:13;5.85;;;3.28;;
48516;SDS011;34310;51.904;4.256;2023-02-04T03:58:40;6.53;;;3.55;;
48516;SDS011;34310;51.904;4.256;2023-02-04T04:01:07;5.60;;;3.17;;
48516;SDS011;34310;51.904;4.256;2023-02-04T04:03:35;4.95;;;3.15;;
48516;SDS011;34310;51.904;4.256;2023-02-04T04:06:02;5.70;;;3.67;;
48516;SDS011;34310;51.904;4.256;2023-02-04T04:08:31;7.22;;;3.75;;
48516;SDS011;34310;51.904;4.256;2023-02-04T04:10:59;6.03;;;3.35;;
48516;SDS011;34310;51.904;4.256;2023-02-04T04:13:26;6.10;;;3.30;;
48516;SDS011;34310;51.904;4.256;2023-02-04T04:15:54;4.90;;;3.30;;
48516;SDS011;34310;51.904;4.256;2023-02-04T04:18:21;6.13;;;3.20;;
48516;SDS011;34310;51.904;4.256;2023-02-04T04:20:48;6.60;;;3.70;;
48516;SDS011;34310;51.904;4.256;2023-02-04T04:23:16;5.72;;;3.17;;
48516;SDS011;34310;51.904;4.256;2023-02-04T04:25:43;4.50;;;2.90;;
48516;SDS011;34310;51.904;4.256;2023-02-04T04:28:10;5.57;;;3.22;;
48516;SDS011;34310;51.904;4.256;2023-02-04T04:30:38;4.85;;;2.90;;
48516;SDS011;34310;51.904;4.256;2023-02-04T04:33:05;5.53;;;3.22;;
48516;SDS011;34310;51.904;4.256;2023-02-04T04:35:32;6.15;;;3.05;;
48516;SDS011;34310;51.904;4.256;2023-02-04T04:38:00;4.78;;;2.63;;
48516;SDS011;34310;51.904;4.256;2023-02-04T04:40:28;4.68;;;2.88;;
48516;SDS011;34310;51.904;4.256;2023-02-04T04:42:56;6.57;;;3.10;;
48516;SDS011;34310;51.904;4.256;2023-02-04T04:45:23;4.20;;;2.92;;
48516;SDS011;34310;51.904;4.256;2023-02-04T04:47:50;5.25;;;2.97;;
48516;SDS011;34310;51.904;4.256;2023-02-04T04:50:18;5.18;;;3.20;;
48516;SDS011;34310;51.904;4.256;2023-02-04T04:52:45;6.20;;;2.88;;
48516;SDS011;34310;51.904;4.256;2023-02-04T04:55:13;4.57;;;2.90;;
48516;SDS011;34310;51.904;4.256;2023-02-04T04:57:40;5.28;;;2.85;;
48516;SDS011;34310;51.904;4.256;2023-02-04T05:00:09;5.68;;;3.25;;
48516;SDS011;34310;51.904;4.256;2023-02-04T05:02:42;6.55;;;3.17;;
48516;SDS011;34310;51.904;4.256;2023-02-04T05:05:09;4.95;;;3.00;;
48516;SDS011;34310;51.904;4.256;2023-02-04T05:07:37;5.43;;;2.90;;
48516;SDS011;34310;51.904;4.256;2023-02-04T05:10:05;6.25;;;3.15;;
48516;SDS011;34310;51.904;4.256;2023-02-04T05:12:32;5.00;;;3.10;;
48516;SDS011;34310;51.904;4.256;2023-02-04T05:14:59;5.85;;;2.97;;
48516;SDS011;34310;51.904;4.256;2023-02-04T05:17:27;5.50;;;2.83;;
48516;SDS011;34310;51.904;4.256;2023-02-04T05:19:54;5.55;;;3.22;;
48516;SDS011;34310;51.904;4.256;2023-02-04T05:22:22;5.03;;;3.03;;
48516;SDS011;34310;51.904;4.256;2023-02-04T05:24:49;5.10;;;2.85;;
48516;SDS011;34310;51.904;4.256;2023-02-04T05:27:16;6.30;;;3.15;;
48516;SDS011;34310;51.904;4.256;2023-02-04T05:29:44;4.90;;;3.15;;
48516;SDS011;34310;51.904;4.256;2023-02-04T05:32:11;4.53;;;3.42;;
48516;SDS011;34310;51.904;4.256;2023-02-04T05:34:38;4.70;;;3.03;;
48516;SDS011;34310;51.904;4.256;2023-02-04T05:37:05;4.72;;;3.08;;
48516;SDS011;34310;51.904;4.256;2023-02-04T05:39:33;5.68;;;3.10;;
48516;SDS011;34310;51.904;4.256;2023-02-04T05:42:00;5.00;;;2.70;;
48516;SDS011;34310;51.904;4.256;2023-02-04T05:44:28;4.75;;;3.10;;
48516;SDS011;34310;51.904;4.256;2023-02-04T05:46:55;5.25;;;3.30;;
48516;SDS011;34310;51.904;4.256;2023-02-04T05:49:22;6.75;;;3.53;;
48516;SDS011;34310;51.904;4.256;2023-02-04T05:51:50;5.32;;;3.38;;
48516;SDS011;34310;51.904;4.256;2023-02-04T05:54:17;5.85;;;3.53;;
48516;SDS011;34310;51.904;4.256;2023-02-04T05:56:45;7.10;;;4.22;;
48516;SDS011;34310;51.904;4.256;2023-02-04T05:59:13;5.70;;;3.38;;
48516;SDS011;34310;51.904;4.256;2023-02-04T06:01:41;5.95;;;3.85;;
48516;SDS011;34310;51.904;4.256;2023-02-04T06:04:08;5.78;;;3.47;;
48516;SDS011;34310;51.904;4.256;2023-02-04T06:06:36;4.80;;;3.10;;
48516;SDS011;34310;51.904;4.256;2023-02-04T06:09:03;4.53;;;3.20;;
48516;SDS011;34310;51.904;4.256;2023-02-04T06:11:30;6.15;;;3.47;;
48516;SDS011;34310;51.904;4.256;2023-02-04T06:13:58;5.68;;;3.47;;
48516;SDS011;34310;51.904;4.256;2023-02-04T06:16:25;5.05;;;3.30;;
48516;SDS011;34310;51.904;4.256;2023-02-04T06:18:52;5.15;;;3.25;;
48516;SDS011;34310;51.904;4.256;2023-02-04T06:21:20;5.68;;;3.53;;
48516;SDS011;34310;51.904;4.256;2023-02-04T06:23:47;4.90;;;3.35;;
48516;SDS011;34310;51.904;4.256;2023-02-04T06:26:14;6.70;;;3.38;;
48516;SDS011;34310;51.904;4.256;2023-02-04T06:28:41;4.45;;;3.30;;
48516;SDS011;34310;51.904;4.256;2023-02-04T06:31:09;11.32;;;4.00;;
48516;SDS011;34310;51.904;4.256;2023-02-04T06:33:36;7.82;;;3.53;;
48516;SDS011;34310;51.904;4.256;2023-02-04T06:36:03;9.32;;;3.65;;
48516;SDS011;34310;51.904;4.256;2023-02-04T06:38:31;20.02;;;3.67;;
48516;SDS011;34310;51.904;4.256;2023-02-04T06:40:58;13.07;;;3.83;;
48516;SDS011;34310;51.904;4.256;2023-02-04T06:43:25;15.13;;;4.25;;
48516;SDS011;34310;51.904;4.256;2023-02-04T06:45:53;11.23;;;3.80;;
48516;SDS011;34310;51.904;4.256;2023-02-04T06:48:20;9.95;;;4.38;;
48516;SDS011;34310;51.904;4.256;2023-02-04T06:50:48;11.15;;;4.30;;
48516;SDS011;34310;51.904;4.256;2023-02-04T06:53:15;15.40;;;4.85;;
48516;SDS011;34310;51.904;4.256;2023-02-04T06:55:43;16.15;;;4.13;;
48516;SDS011;34310;51.904;4.256;2023-02-04T06:58:10;29.95;;;5.10;;
48516;SDS011;34310;51.904;4.256;2023-02-04T07:00:38;14.93;;;4.15;;
48516;SDS011;34310;51.904;4.256;2023-02-04T07:03:05;20.30;;;4.82;;
48516;SDS011;34310;51.904;4.256;2023-02-04T07:05:32;20.65;;;4.80;;
48516;SDS011;34310;51.904;4.256;2023-02-04T07:08:00;23.83;;;5.28;;
48516;SDS011;34310;51.904;4.256;2023-02-04T07:10:27;26.25;;;5.28;;
48516;SDS011;34310;51.904;4.256;2023-02-04T07:12:55;23.73;;;5.38;;
48516;SDS011;34310;51.904;4.256;2023-02-04T07:15:22;24.00;;;5.25;;
48516;SDS011;34310;51.904;4.256;2023-02-04T07:17:50;22.70;;;5.55;;
48516;SDS011;34310;51.904;4.256;2023-02-04T07:20:17;15.43;;;4.93;;
48516;SDS011;34310;51.904;4.256;2023-02-04T07:22:44;17.10;;;5.05;;
48516;SDS011;34310;51.904;4.256;2023-02-04T07:25:12;14.38;;;4.68;;
48516;SDS011;34310;51.904;4.256;2023-02-04T07:27:43;13.57;;;4.57;;
48516;SDS011;34310;51.904;4.256;2023-02-04T07:30:10;12.95;;;4.82;;
48516;SDS011;34310;51.904;4.256;2023-02-04T07:32:38;15.43;;;4.93;;
48516;SDS011;34310;51.904;4.256;2023-02-04T07:35:05;9.82;;;4.55;;
48516;SDS011;34310;51.904;4.256;2023-02-04T07:37:33;14.02;;;4.60;;
48516;SDS011;34310;51.904;4.256;2023-02-04T07:40:00;17.15;;;4.50;;
48516;SDS011;34310;51.904;4.256;2023-02-04T07:42:27;12.20;;;4.50;;
48516;SDS011;34310;51.904;4.256;2023-02-04T07:44:55;12.85;;;4.80;;
48516;SDS011;34310;51.904;4.256;2023-02-04T07:47:22;17.42;;;5.30;;
48516;SDS011;34310;51.904;4.256;2023-02-04T07:49:49;24.27;;;5.30;;
48516;SDS011;34310;51.904;4.256;2023-02-04T07:52:17;20.20;;;5.13;;
48516;SDS011;34310;51.904;4.256;2023-02-04T07:54:44;17.92;;;5.03;;
48516;SDS011;34310;51.904;4.256;2023-02-04T07:57:11;17.92;;;5.32;;
48516;SDS011;34310;51.904;4.256;2023-02-04T07:59:38;14.60;;;4.78;;
48516;SDS011;34310;51.904;4.256;2023-02-04T08:02:06;15.23;;;4.85;;
48516;SDS011;34310;51.904;4.256;2023-02-04T08:04:35;20.48;;;4.63;;
48516;SDS011;34310;51.904;4.256;2023-02-04T08:07:03;19.45;;;5.80;;
48516;SDS011;34310;51.904;4.256;2023-02-04T08:09:30;17.65;;;4.70;;
48516;SDS011;34310;51.904;4.256;2023-02-04T08:11:57;19.17;;;4.72;;
48516;SDS011;34310;51.904;4.256;2023-02-04T08:14:25;16.27;;;5.03;;
48516;SDS011;34310;51.904;4.256;2023-02-04T08:16:52;10.88;;;4.95;;
48516;SDS011;34310;51.904;4.256;2023-02-04T08:19:19;11.25;;;5.03;;
48516;SDS011;34310;51.904;4.256;2023-02-04T08:21:47;10.95;;;4.30;;
48516;SDS011;34310;51.904;4.256;2023-02-04T08:24:14;18.05;;;4.80;;
48516;SDS011;34310;51.904;4.256;2023-02-04T08:26:43;8.63;;;3.97;;
48516;SDS011;34310;51.904;4.256;2023-02-04T08:29:10;12.27;;;4.60;;
48516;SDS011;34310;51.904;4.256;2023-02-04T08:31:37;7.80;;;4.03;;
48516;SDS011;34310;51.904;4.256;2023-02-04T08:34:05;12.23;;;4.35;;
48516;SDS011;34310;51.904;4.256;2023-02-04T08:36:35;10.60;;;4.00;;
48516;SDS011;34310;51.904;4.256;2023-02-04T08:39:02;9.68;;;4.20;;
48516;SDS011;34310;51.904;4.256;2023-02-04T08:41:30;9.32;;;3.92;;
48516;SDS011;34310;51.904;4.256;2023-02-04T08:43:58;8.18;;;4.38;;
48516;SDS011;34310;51.904;4.256;2023-02-04T08:46:26;8.40;;;4.43;;
48516;SDS011;34310;51.904;4.256;2023-02-04T08:48:53;7.40;;;3.72;;
48516;SDS011;34310;51.904;4.256;2023-02-04T08:51:20;11.57;;;5.03;;
48516;SDS011;34310;51.904;4.256;2023-02-04T08:53:48;7.88;;;4.13;;
48516;SDS011;34310;51.904;4.256;2023-02-04T08:56:15;8.98;;;3.90;;
48516;SDS011;34310;51.904;4.256;2023-02-04T08:58:45;8.40;;;3.80;;
48516;SDS011;34310;51.904;4.256;2023-02-04T09:01:18;7.70;;;3.80;;
48516;SDS011;34310;51.904;4.256;2023-02-04T09:03:45;8.73;;;4.32;;
48516;SDS011;34310;51.904;4.256;2023-02-04T09:06:12;7.53;;;3.70;;
48516;SDS011;34310;51.904;4.256;2023-02-04T09:08:40;10.43;;;4.28;;
48516;SDS011;34310;51.904;4.256;2023-02-04T09:11:07;7.63;;;4.10;;
48516;SDS011;34310;51.904;4.256;2023-02-04T09:13:37;6.95;;;3.95;;
48516;SDS011;34310;51.904;4.256;2023-02-04T09:16:04;8.43;;;4.13;;
48516;SDS011;34310;51.904;4.256;2023-02-04T09:18:32;9.50;;;4.30;;
48516;SDS011;34310;51.904;4.256;2023-02-04T09:20:59;6.80;;;4.10;;
48516;SDS011;34310;51.904;4.256;2023-02-04T09:23:27;8.20;;;4.38;;
48516;SDS011;34310;51.904;4.256;2023-02-04T09:25:55;6.80;;;3.75;;
48516;SDS011;34310;51.904;4.256;2023-02-04T09:28:22;5.22;;;3.63;;
48516;SDS011;34310;51.904;4.256;2023-02-04T09:30:49;5.82;;;3.60;;
48516;SDS011;34310;51.904;4.256;2023-02-04T09:33:17;6.82;;;3.55;;
48516;SDS011;34310;51.904;4.256;2023-02-04T09:35:44;5.18;;;3.85;;
48516;SDS011;34310;51.904;4.256;2023-02-04T09:38:12;7.22;;;3.85;;
48516;SDS011;34310;51.904;4.256;2023-02-04T09:40:43;7.40;;;4.00;;
48516;SDS011;34310;51.904;4.256;2023-02-04T09:43:16;7.43;;;3.85;;
48516;SDS011;34310;51.904;4.256;2023-02-04T09:45:47;7.53;;;3.97;;
48516;SDS011;34310;51.904;4.256;2023-02-04T09:48:15;6.07;;;3.50;;
48516;SDS011;34310;51.904;4.256;2023-02-04T09:50:43;5.28;;;3.75;;
48516;SDS011;34310;51.904;4.256;2023-02-04T09:53:12;7.82;;;3.67;;
48516;SDS011;34310;51.904;4.256;2023-02-04T09:55:43;5.20;;;3.50;;
48516;SDS011;34310;51.904;4.256;2023-02-04T09:58:19;4.65;;;3.30;;
48516;SDS011;34310;51.904;4.256;2023-02-04T10:00:51;4.72;;;3.67;;
48516;SDS011;34310;51.904;4.256;2023-02-04T10:03:24;5.35;;;3.50;;
48516;SDS011;34310;51.904;4.256;2023-02-04T10:05:51;4.68;;;3.55;;
48516;SDS011;34310;51.904;4.256;2023-02-04T10:08:19;5.45;;;3.80;;
48516;SDS011;34310;51.904;4.256;2023-02-04T10:10:58;5.97;;;3.55;;
48516;SDS011;34310;51.904;4.256;2023-02-04T10:13:29;4.35;;;3.35;;
48516;SDS011;34310;51.904;4.256;2023-02-04T10:16:00;4.40;;;3.40;;
48516;SDS011;34310;51.904;4.256;2023-02-04T10:18:31;6.95;;;3.95;;
48516;SDS011;34310;51.904;4.256;2023-02-04T10:21:20;6.10;;;3.70;;
48516;SDS011;34310;51.904;4.256;2023-02-04T10:23:58;5.60;;;3.72;;
48516;SDS011;34310;51.904;4.256;2023-02-04T10:26:29;6.55;;;4.10;;
48516;SDS011;34310;51.904;4.256;2023-02-04T10:29:02;6.00;;;4.25;;
48516;SDS011;34310;51.904;4.256;2023-02-04T10:31:35;5.38;;;3.97;;
48516;SDS011;34310;51.904;4.256;2023-02-04T10:34:12;6.88;;;3.97;;
48516;SDS011;34310;51.904;4.256;2023-02-04T10:36:46;6.60;;;3.95;;
48516;SDS011;34310;51.904;4.256;2023-02-04T10:39:28;6.27;;;4.57;;
48516;SDS011;34310;51.904;4.256;2023-02-04T10:41:56;5.47;;;4.28;;
48516;SDS011;34310;51.904;4.256;2023-02-04T10:44:29;5.68;;;4.55;;
48516;SDS011;34310;51.904;4.256;2023-02-04T10:47:03;6.10;;;4.22;;
48516;SDS011;34310;51.904;4.256;2023-02-04T10:49:33;7.82;;;4.50;;
48516;SDS011;34310;51.904;4.256;2023-02-04T10:52:01;5.53;;;4.70;;
48516;SDS011;34310;51.904;4.256;2023-02-04T10:54:38;6.13;;;4.78;;
48516;SDS011;34310;51.904;4.256;2023-02-04T10:57:07;6.93;;;4.82;;
48516;SDS011;34310;51.904;4.256;2023-02-04T10:59:47;6.47;;;4.90;;
48516;SDS011;34310;51.904;4.256;2023-02-04T11:07:44;7.22;;;5.20;;
48516;SDS011;34310;51.904;4.256;2023-02-04T11:10:22;8.15;;;5.97;;
48516;SDS011;34310;51.904;4.256;2023-02-04T11:20:46;8.75;;;6.10;;
48516;SDS011;34310;51.904;4.256;2023-02-04T11:23:15;7.97;;;5.75;;
48516;SDS011;34310;51.904;4.256;2023-02-04T11:33:48;10.13;;;6.93;;
48516;SDS011;34310;51.904;4.256;2023-02-04T11:36:27;9.27;;;7.03;;
48516;SDS011;34310;51.904;4.256;2023-02-04T11:38:55;9.75;;;7.05;;
48516;SDS011;34310;51.904;4.256;2023-02-04T11:41:31;10.18;;;7.60;;
48516;SDS011;34310;51.904;4.256;2023-02-04T11:43:59;9.45;;;7.35;;
48516;SDS011;34310;51.904;4.256;2023-02-04T11:46:26;9.95;;;7.13;;
48516;SDS011;34310;51.904;4.256;2023-02-04T11:48:56;10.40;;;7.65;;
48516;SDS011;34310;51.904;4.256;2023-02-04T11:51:29;10.70;;;7.60;;
48516;SDS011;34310;51.904;4.256;2023-02-04T11:53:58;10.98;;;7.68;;
48516;SDS011;34310;51.904;4.256;2023-02-04T11:56:29;10.77;;;7.93;;
48516;SDS011;34310;51.904;4.256;2023-02-04T11:58:57;10.27;;;7.82;;
48516;SDS011;34310;51.904;4.256;2023-02-04T12:01:29;11.20;;;8.63;;
48516;SDS011;34310;51.904;4.256;2023-02-04T12:04:03;11.55;;;8.85;;
48516;SDS011;34310;51.904;4.256;2023-02-04T12:06:33;11.38;;;8.60;;
48516;SDS011;34310;51.904;4.256;2023-02-04T12:11:54;11.40;;;8.80;;
48516;SDS011;34310;51.904;4.256;2023-02-04T12:14:36;12.43;;;8.68;;
48516;SDS011;34310;51.904;4.256;2023-02-04T12:17:17;11.52;;;8.77;;
48516;SDS011;34310;51.904;4.256;2023-02-04T12:19:45;12.45;;;8.85;;
48516;SDS011;34310;51.904;4.256;2023-02-04T12:22:12;11.93;;;9.02;;
48516;SDS011;34310;51.904;4.256;2023-02-04T12:24:40;12.35;;;9.50;;
48516;SDS011;34310;51.904;4.256;2023-02-04T12:27:09;12.30;;;9.68;;
48516;SDS011;34310;51.904;4.256;2023-02-04T12:29:36;13.15;;;9.85;;
48516;SDS011;34310;51.904;4.256;2023-02-04T12:32:03;11.65;;;9.07;;
48516;SDS011;34310;51.904;4.256;2023-02-04T12:34:31;14.45;;;10.07;;
48516;SDS011;34310;51.904;4.256;2023-02-04T12:36:58;13.57;;;10.38;;
48516;SDS011;34310;51.904;4.256;2023-02-04T12:39:25;13.05;;;10.00;;
48516;SDS011;34310;51.904;4.256;2023-02-04T12:41:53;13.60;;;10.35;;
48516;SDS011;34310;51.904;4.256;2023-02-04T12:44:20;13.18;;;10.18;;
48516;SDS011;34310;51.904;4.256;2023-02-04T12:46:48;13.55;;;10.52;;
48516;SDS011;34310;51.904;4.256;2023-02-04T12:49:16;14.07;;;10.10;;
48516;SDS011;34310;51.904;4.256;2023-02-04T12:51:43;13.85;;;10.43;;
48516;SDS011;34310;51.904;4.256;2023-02-04T12:54:11;14.98;;;10.77;;
48516;SDS011;34310;51.904;4.256;2023-02-04T12:56:38;13.63;;;10.45;;
48516;SDS011;34310;51.904;4.256;2023-02-04T12:59:05;15.05;;;10.75;;
48516;SDS011;34310;51.904;4.256;2023-02-04T13:01:32;14.38;;;10.95;;
48516;SDS011;34310;51.904;4.256;2023-02-04T13:04:00;14.98;;;11.57;;
48516;SDS011;34310;51.904;4.256;2023-02-04T13:06:27;14.75;;;10.90;;
48516;SDS011;34310;51.904;4.256;2023-02-04T13:08:55;14.50;;;10.95;;
48516;SDS011;34310;51.904;4.256;2023-02-04T13:11:23;14.57;;;11.45;;
48516;SDS011;34310;51.904;4.256;2023-02-04T13:13:50;13.43;;;10.77;;
48516;SDS011;34310;51.904;4.256;2023-02-04T13:16:17;15.02;;;11.50;;
48516;SDS011;34310;51.904;4.256;2023-02-04T13:18:48;14.90;;;11.73;;
48516;SDS011;34310;51.904;4.256;2023-02-04T13:21:15;15.80;;;12.07;;
48516;SDS011;34310;51.904;4.256;2023-02-04T13:23:43;15.07;;;11.73;;
48516;SDS011;34310;51.904;4.256;2023-02-04T13:26:10;14.27;;;11.13;;
48516;SDS011;34310;51.904;4.256;2023-02-04T13:28:38;16.20;;;12.07;;
48516;SDS011;34310;51.904;4.256;2023-02-04T13:31:05;14.63;;;11.13;;
48516;SDS011;34310;51.904;4.256;2023-02-04T13:33:32;13.63;;;10.82;;
48516;SDS011;34310;51.904;4.256;2023-02-04T13:36:00;16.80;;;12.18;;
48516;SDS011;34310;51.904;4.256;2023-02-04T13:38:27;13.13;;;10.55;;
48516;SDS011;34310;51.904;4.256;2023-02-04T13:40:54;14.73;;;11.15;;
48516;SDS011;34310;51.904;4.256;2023-02-04T13:43:22;15.75;;;11.57;;
48516;SDS011;34310;51.904;4.256;2023-02-04T13:45:49;14.13;;;11.15;;
48516;SDS011;34310;51.904;4.256;2023-02-04T13:48:17;14.45;;;10.95;;
48516;SDS011;34310;51.904;4.256;2023-02-04T13:50:44;14.63;;;10.95;;
48516;SDS011;34310;51.904;4.256;2023-02-04T13:53:11;14.10;;;11.02;;
48516;SDS011;34310;51.904;4.256;2023-02-04T13:55:38;12.95;;;10.48;;
48516;SDS011;34310;51.904;4.256;2023-02-04T13:58:06;12.48;;;10.48;;
48516;SDS011;34310;51.904;4.256;2023-02-04T14:00:33;12.45;;;10.20;;
48516;SDS011;34310;51.904;4.256;2023-02-04T14:03:01;14.20;;;10.90;;
48516;SDS011;34310;51.904;4.256;2023-02-04T14:05:28;12.52;;;10.32;;
48516;SDS011;34310;51.904;4.256;2023-02-04T14:07:55;12.50;;;10.10;;
48516;SDS011;34310;51.904;4.256;2023-02-04T14:10:22;12.98;;;10.48;;
48516;SDS011;34310;51.904;4.256;2023-02-04T14:12:51;14.20;;;10.02;;
48516;SDS011;34310;51.904;4.256;2023-02-04T14:15:19;13.27;;;10.18;;
48516;SDS011;34310;51.904;4.256;2023-02-04T14:17:46;12.45;;;10.25;;
48516;SDS011;34310;51.904;4.256;2023-02-04T14:20:14;13.65;;;9.93;;
48516;SDS011;34310;51.904;4.256;2023-02-04T14:22:41;12.70;;;10.13;;
48516;SDS011;34310;51.904;4.256;2023-02-04T14:25:08;13.10;;;9.68;;
48516;SDS011;34310;51.904;4.256;2023-02-04T14:27:36;12.68;;;10.05;;
48516;SDS011;34310;51.904;4.256;2023-02-04T14:30:14;11.45;;;9.43;;
48516;SDS011;34310;51.904;4.256;2023-02-04T14:32:44;12.98;;;10.13;;
48516;SDS011;34310;51.904;4.256;2023-02-04T14:35:11;12.20;;;9.32;;
48516;SDS011;34310;51.904;4.256;2023-02-04T14:37:39;11.48;;;9.15;;
48516;SDS011;34310;51.904;4.256;2023-02-04T14:40:07;12.35;;;9.15;;
48516;SDS011;34310;51.904;4.256;2023-02-04T14:42:37;12.23;;;9.05;;
48516;SDS011;34310;51.904;4.256;2023-02-04T14:45:05;11.80;;;9.00;;
48516;SDS011;34310;51.904;4.256;2023-02-04T14:47:34;12.18;;;9.35;;
48516;SDS011;34310;51.904;4.256;2023-02-04T14:50:03;12.23;;;9.32;;
48516;SDS011;34310;51.904;4.256;2023-02-04T14:52:32;11.55;;;8.82;;
48516;SDS011;34310;51.904;4.256;2023-02-04T14:54:59;11.57;;;8.60;;
48516;SDS011;34310;51.904;4.256;2023-02-04T14:57:26;10.57;;;8.27;;
48516;SDS011;34310;51.904;4.256;2023-02-04T14:59:54;10.85;;;8.70;;
48516;SDS011;34310;51.904;4.256;2023-02-04T15:02:21;9.90;;;8.38;;
48516;SDS011;34310;51.904;4.256;2023-02-04T15:04:48;11.45;;;8.75;;
48516;SDS011;34310;51.904;4.256;2023-02-04T15:07:15;10.40;;;8.27;;
48516;SDS011;34310;51.904;4.256;2023-02-04T15:09:43;10.93;;;8.48;;
48516;SDS011;34310;51.904;4.256;2023-02-04T15:12:10;10.23;;;8.80;;
48516;SDS011;34310;51.904;4.256;2023-02-04T15:14:38;11.50;;;8.32;;
48516;SDS011;34310;51.904;4.256;2023-02-04T15:17:05;10.30;;;8.00;;